Accueil
METAR-TAF:

METAR-TAF

Aéroports :

Akıncı, Turquie

latitude: 40-05N, longitude: 032-34E, altitude: 843 m

Observation

Le bulletin a été fait il y a 10 heures et 47 minutes, à 11:29 UTC
Vent 14 kt de nord/nord-ouest
Température 8°C
Humidité 53%
Pression 1016 hPa
Visibilité 10 km ou plus
Nuages fragmentés à une hauteur de 3300 ft
Nuages fragmentés à une hauteur de 9000 ft

METAR: LTAE 191129Z 33014KT 9999 BKN033 BKN090 08/M01 Q1016 RESHRA NOSIG RMK RWY21 33012KT

Heure: 01:16 (22:16 UTC)

Prévision

Le bulletin a été fait il y a 2 heures et 36 minutes, à 19:40 UTC
Prévision valable du 19 à 21 UTC au 20 à 06 UTC
Vent 8 kt de nord
Visibilité 10 km ou plus
Nuages épars à une hauteur de 4000 ft
Nuages épars à une hauteur de 10000 ft

TAF: LTAE 191940Z 1921/2006 35008KT 9999 SCT040 SCT100

Observations et prévisions météorologiques de plus de 4000 aéroports (messages METAR et TAF).

Les stations disponibles sont représentées par des disques jaunes et rouges sur la carte.

Passer la souris dessus pour voir le nom de la station.

Cliquer dessus pour voir les observations et prévisions météorologiques.

Pour changer de carte: cliquez sur les boutons verts avec une croix noire pour zoomer, sur le bouton vert avec un tiret pour effectuer un zoom arrière, ou sur les flèches vertes pour les cartes adjacentes.


METAR-TAF: